Time;durP1;ratioP1;P1;durP2;ratioP2;P2;SDS_P1;SDS_P2;PMS_P1;PMS_P2;Temp;Humidity;BMP_temperature;BMP_pressure;BME280_temperature;BME280_humidity;BME280_pressure;Samples;Min_cycle;Max_cycle;Signal;HPM_P1;HPM_P2
2022/05/20 00:01:49;;;;;;;1999.90;999.90;;;13.10;99.90;;;;;;5073316;28;20583;-78
2022/05/20 00:04:14;;;;;;;1999.90;999.90;;;13.10;99.90;;;;;;5071445;28;20527;-79
2022/05/20 00:06:40;;;;;;;1999.90;999.90;;;13.10;99.90;;;;;;5056203;28;20040;-79
2022/05/20 00:09:06;;;;;;;1999.90;999.90;;;13.10;99.90;;;;;;5073140;28;20039;-78
2022/05/20 00:11:32;;;;;;;1999.90;999.90;;;13.00;99.90;;;;;;5051933;28;20031;-79
2022/05/20 00:13:57;;;;;;;1999.90;999.90;;;13.00;99.90;;;;;;5036448;28;20041;-79
2022/05/20 00:16:23;;;;;;;1999.90;999.90;;;13.00;99.90;;;;;;5059422;28;20109;-79
2022/05/20 00:18:49;;;;;;;1999.90;999.90;;;13.00;99.90;;;;;;5061044;28;20039;-79
2022/05/20 00:21:15;;;;;;;1999.90;999.90;;;13.00;99.90;;;;;;5056412;28;20054;-79
2022/05/20 00:23:40;;;;;;;1999.90;999.90;;;13.00;99.90;;;;;;5072562;28;20062;-79
2022/05/20 00:26:06;;;;;;;1999.90;999.90;;;13.00;99.90;;;;;;5073604;28;20072;-78
2022/05/20 00:28:32;;;;;;;1999.90;999.90;;;13.00;99.90;;;;;;5072195;28;20123;-79
2022/05/20 00:31:03;;;;;;;1999.90;999.90;;;13.00;99.90;;;;;;5055521;28;20047;-79
2022/05/20 00:33:29;;;;;;;1999.90;999.90;;;12.90;99.90;;;;;;5056070;28;20596;-78
2022/05/20 00:35:55;;;;;;;1999.90;999.90;;;12.90;99.90;;;;;;5052918;28;20041;-78
2022/05/20 00:38:21;;;;;;;1999.90;999.90;;;12.90;99.90;;;;;;5071121;28;20048;-78
2022/05/20 00:40:49;;;;;;;1999.90;999.90;;;12.90;99.90;;;;;;5054389;28;20046;-79
2022/05/20 00:43:29;;;;;;;1999.90;999.90;;;12.80;99.90;;;;;;5040039;28;20054;-79
2022/05/20 00:45:57;;;;;;;1999.90;999.90;;;12.60;99.90;;;;;;5072197;28;20430;-79
2022/05/20 00:48:23;;;;;;;1999.90;999.90;;;12.50;99.90;;;;;;5071057;28;20036;-78
2022/05/20 00:50:59;;;;;;;1999.90;999.90;;;12.40;99.90;;;;;;5054105;28;20050;-79
2022/05/20 00:53:28;;;;;;;1999.90;999.90;;;12.30;99.90;;;;;;5069914;28;20040;-78
2022/05/20 00:55:54;;;;;;;1999.90;999.90;;;12.20;99.90;;;;;;5083975;28;20089;-79
2022/05/20 00:58:23;;;;;;;1999.90;999.90;;;12.10;99.90;;;;;;5068287;28;20044;-79
2022/05/20 01:00:54;;;;;;;1999.90;999.90;;;12.10;99.90;;;;;;5053174;28;20032;-79
2022/05/20 01:03:29;;;;;;;1999.90;999.90;;;11.90;99.90;;;;;;5070790;28;20507;-79
2022/05/20 01:05:56;;;;;;;1999.90;999.90;;;11.90;99.90;;;;;;5071446;28;20528;-79
2022/05/20 01:08:25;;;;;;;1999.90;999.90;;;11.70;99.90;;;;;;5072134;28;20044;-79
2022/05/20 01:10:51;;;;;;;1999.90;999.90;;;11.70;99.90;;;;;;5053207;28;20410;-78
2022/05/20 01:13:18;;;;;;;1999.90;999.90;;;11.60;99.90;;;;;;5069339;28;20481;-78
2022/05/20 01:15:45;;;;;;;1999.90;999.90;;;11.50;99.90;;;;;;5071447;28;20044;-78
2022/05/20 01:18:12;;;;;;;1999.90;999.90;;;11.40;99.90;;;;;;5066516;28;20054;-78
2022/05/20 01:20:44;;;;;;;1999.90;999.90;;;11.30;99.90;;;;;;5056510;28;20082;-78
2022/05/20 01:23:14;;;;;;;1999.90;999.90;;;11.30;99.90;;;;;;5053478;28;20142;-78
2022/05/20 01:25:42;;;;;;;1999.90;999.90;;;11.20;99.90;;;;;;5071402;28;20044;-78
2022/05/20 01:28:08;;;;;;;1999.90;999.90;;;11.20;99.90;;;;;;5055636;28;20493;-78
2022/05/20 01:30:35;;;;;;;1999.90;999.90;;;11.20;99.90;;;;;;5071035;28;20043;-78
2022/05/20 01:33:06;;;;;;;1999.90;999.90;;;11.20;99.90;;;;;;5046713;28;20054;-79
2022/05/20 01:35:36;;;;;;;1999.90;999.90;;;11.30;99.90;;;;;;5081930;28;20408;-78
2022/05/20 01:38:03;;;;;;;1999.90;999.90;;;11.30;99.90;;;;;;5052746;28;20048;-78
2022/05/20 01:40:44;;;;;;;1999.90;999.90;;;11.30;99.90;;;;;;5068133;28;20123;-79
2022/05/20 01:43:22;;;;;;;1999.90;999.90;;;11.30;99.90;;;;;;5061503;28;20390;-78
2022/05/20 01:45:59;;;;;;;1999.90;999.90;;;11.40;99.90;;;;;;5075650;28;20051;-78
2022/05/20 01:48:32;;;;;;;1999.90;999.90;;;11.40;99.90;;;;;;5070895;28;20177;-78
2022/05/20 01:50:57;;;;;;;1999.90;999.90;;;11.40;99.90;;;;;;5043323;28;20043;-78
2022/05/20 01:53:47;;;;;;;1999.90;999.90;;;11.40;99.90;;;;;;5066604;28;20041;-78
2022/05/20 01:56:17;;;;;;;1999.90;999.90;;;11.40;99.90;;;;;;5041571;28;20059;-78
2022/05/20 01:59:02;;;;;;;1999.90;999.90;;;11.40;99.90;;;;;;5071400;28;20040;-78
2022/05/20 02:01:35;;;;;;;1999.90;999.90;;;11.40;99.90;;;;;;5070899;28;20069;-78
2022/05/20 02:04:06;;;;;;;1999.90;999.90;;;11.30;99.90;;;;;;5048757;28;20429;-78
2022/05/20 02:06:45;;;;;;;1999.90;999.90;;;11.20;99.90;;;;;;5070548;28;20040;-78
2022/05/20 02:09:23;;;;;;;1999.90;999.90;;;11.20;99.90;;;;;;5070817;28;20512;-78
2022/05/20 02:11:54;;;;;;;1999.90;999.90;;;11.10;99.90;;;;;;5052944;28;20440;-78
2022/05/20 02:14:35;;;;;;;1999.90;999.90;;;11.10;99.90;;;;;;5064182;28;20040;-78
2022/05/20 02:17:12;;;;;;;1999.90;999.90;;;11.00;99.90;;;;;;5055497;28;20036;-78
2022/05/20 02:20:04;;;;;;;1999.90;999.90;;;10.90;99.90;;;;;;5069739;28;20072;-78
2022/05/20 02:22:34;;;;;;;1999.90;999.90;;;10.90;99.90;;;;;;5053568;28;20627;-78
2022/05/20 02:25:03;;;;;;;1999.90;999.90;;;10.80;99.90;;;;;;5061572;28;20524;-78
2022/05/20 02:27:37;;;;;;;1999.90;999.90;;;10.70;99.90;;;;;;5063963;28;20496;-78
2022/05/20 02:30:10;;;;;;;1999.90;999.90;;;10.70;99.90;;;;;;5070727;28;20050;-77
2022/05/20 02:32:43;;;;;;;1999.90;999.90;;;10.60;99.90;;;;;;5052293;28;20059;-77
2022/05/20 02:35:09;;;;;;;1999.90;999.90;;;10.50;99.90;;;;;;5066140;28;20054;-78
2022/05/20 02:37:36;;;;;;;1999.90;999.90;;;10.50;99.90;;;;;;5048254;28;20044;-77
2022/05/20 02:40:08;;;;;;;1999.90;999.90;;;10.40;99.90;;;;;;5049221;28;20041;-78
2022/05/20 02:42:34;;;;;;;1999.90;999.90;;;10.40;99.90;;;;;;5076655;28;20035;-77
2022/05/20 02:45:00;;;;;;;1999.90;999.90;;;10.40;99.90;;;;;;5055240;28;20421;-77
2022/05/20 02:47:31;;;;;;;1999.90;999.90;;;10.40;99.90;;;;;;5052489;28;20414;-77
2022/05/20 02:49:59;;;;;;;1999.90;999.90;;;10.40;99.90;;;;;;5052332;28;20051;-77
2022/05/20 02:52:25;;;;;;;1999.90;999.90;;;10.40;99.90;;;;;;5070460;28;20044;-77
2022/05/20 02:54:51;;;;;;;1999.90;999.90;;;10.50;99.90;;;;;;5050451;28;20044;-78
2022/05/20 02:57:16;;;;;;;1999.90;999.90;;;10.40;99.90;;;;;;5064043;28;20102;-78
2022/05/20 03:05:13;;;;;;;1999.90;999.90;;;10.30;99.90;;;;;;5075017;28;20044;-77
2022/05/20 03:07:39;;;;;;;1999.90;999.90;;;10.30;99.90;;;;;;5074214;28;20050;-77
2022/05/20 03:10:05;;;;;;;1999.90;999.90;;;10.20;99.90;;;;;;5052976;28;20127;-78
2022/05/20 03:12:30;;;;;;;1999.90;999.90;;;10.20;99.90;;;;;;5069459;28;20036;-77
2022/05/20 03:14:56;;;;;;;1999.90;999.90;;;10.20;99.90;;;;;;5070367;28;20051;-77
2022/05/20 03:17:22;;;;;;;1999.90;999.90;;;10.20;99.90;;;;;;5067691;28;20526;-77
2022/05/20 03:19:47;;;;;;;1999.90;999.90;;;10.20;99.90;;;;;;5061534;28;20523;-77
2022/05/20 03:22:13;;;;;;;1999.90;999.90;;;10.30;99.90;;;;;;5053406;28;20482;-77
2022/05/20 03:24:39;;;;;;;1999.90;999.90;;;10.20;99.90;;;;;;5056443;28;20060;-77
2022/05/20 03:27:05;;;;;;;1999.90;999.90;;;10.20;99.90;;;;;;5073591;28;20047;-77
2022/05/20 03:29:32;;;;;;;1999.90;999.90;;;10.10;99.90;;;;;;5056798;28;20489;-77
2022/05/20 03:31:58;;;;;;;1999.90;999.90;;;10.00;99.90;;;;;;5079178;28;20485;-77
2022/05/20 03:34:24;;;;;;;1999.90;999.90;;;10.00;99.90;;;;;;5057135;28;20090;-77
2022/05/20 03:36:50;;;;;;;1999.90;999.90;;;9.90;99.90;;;;;;5059774;28;20405;-78
2022/05/20 03:39:19;;;;;;;1999.90;999.90;;;9.80;99.90;;;;;;5069651;28;20047;-77
2022/05/20 03:41:45;;;;;;;1999.90;999.90;;;9.80;99.90;;;;;;5048096;28;20084;-77
2022/05/20 03:44:12;;;;;;;1999.90;999.90;;;9.70;99.90;;;;;;5053705;28;20094;-77
2022/05/20 03:46:44;;;;;;;1999.90;999.90;;;9.70;99.90;;;;;;5050256;28;20492;-77
2022/05/20 03:49:10;;;;;;;1999.90;999.90;;;9.70;99.90;;;;;;5054776;28;20442;-77
2022/05/20 03:51:37;;;;;;;1999.90;999.90;;;9.70;99.90;;;;;;5056486;28;20083;-78
2022/05/20 03:54:03;;;;;;;1999.90;999.90;;;9.70;99.90;;;;;;5056808;28;20048;-77
2022/05/20 03:56:29;;;;;;;1999.90;999.90;;;9.70;99.90;;;;;;5073071;28;20405;-77
2022/05/20 03:58:55;;;;;;;1999.90;999.90;;;9.70;99.90;;;;;;5073756;28;20044;-77
2022/05/20 04:04:05;;;;;;;1999.90;999.90;;;9.80;99.90;;;;;;5069850;28;20457;-78
2022/05/20 04:06:30;;;;;;;1999.90;999.90;;;9.80;99.90;;;;;;5047818;28;20068;-78
2022/05/20 04:08:56;;;;;;;1999.90;999.90;;;9.80;99.90;;;;;;5053877;28;20071;-77
2022/05/20 04:11:23;;;;;;;1999.90;999.90;;;9.90;99.90;;;;;;5072832;28;20031;-77
2022/05/20 04:13:48;;;;;;;1999.90;999.90;;;9.90;99.90;;;;;;5071562;28;20036;-78
2022/05/20 04:16:16;;;;;;;1999.90;999.90;;;10.00;99.90;;;;;;5068948;28;20059;-78
2022/05/20 04:18:43;;;;;;;1999.90;999.90;;;10.10;99.90;;;;;;5046649;28;20052;-78
2022/05/20 04:21:10;;;;;;;1999.90;999.90;;;10.10;99.90;;;;;;5052608;28;20540;-78
2022/05/20 04:23:36;;;;;;;1999.90;999.90;;;10.20;99.90;;;;;;5047050;28;20097;-77
2022/05/20 04:26:02;;;;;;;1999.90;999.90;;;10.30;99.90;;;;;;5068859;28;20410;-78
2022/05/20 04:28:28;;;;;;;1999.90;999.90;;;10.30;99.90;;;;;;5067518;28;20128;-77
2022/05/20 04:30:57;;;;;;;1999.90;999.90;;;10.30;99.90;;;;;;5052359;28;20142;-78
2022/05/20 04:33:23;;;;;;;1999.90;999.90;;;10.30;99.90;;;;;;5064953;28;20044;-77
2022/05/20 04:35:49;;;;;;;1999.90;999.90;;;10.40;99.90;;;;;;5067267;28;20497;-77
2022/05/20 04:38:14;;;;;;;1999.90;999.90;;;10.40;99.90;;;;;;5068381;28;20068;-77
2022/05/20 04:40:40;;;;;;;1999.90;999.90;;;10.50;99.90;;;;;;5050294;28;20124;-77
2022/05/20 04:48:35;;;;;;;1999.90;999.90;;;10.50;99.90;;;;;;5048970;28;20138;-77
2022/05/20 04:51:01;;;;;;;1999.90;999.90;;;10.50;99.90;;;;;;5036090;28;20097;-77
2022/05/20 04:56:11;;;;;;;1999.90;999.90;;;10.60;99.90;;;;;;5066302;28;20406;-77
2022/05/20 04:58:37;;;;;;;1999.90;999.90;;;10.70;99.90;;;;;;5054219;28;20353;-78
2022/05/20 05:01:03;;;;;;;1999.90;999.90;;;10.70;99.90;;;;;;5048148;28;20049;-77
2022/05/20 05:03:29;;;;;;;1999.90;999.90;;;10.80;99.90;;;;;;5051654;28;20512;-77
2022/05/20 05:05:54;;;;;;;1999.90;999.90;;;10.90;99.90;;;;;;5068321;28;20041;-77
2022/05/20 05:08:20;;;;;;;1999.90;999.90;;;10.90;99.90;;;;;;5065456;28;20477;-77
2022/05/20 05:10:47;;;;;;;1999.90;999.90;;;11.00;99.90;;;;;;5047134;28;20467;-78
2022/05/20 05:13:14;;;;;;;1999.90;999.90;;;11.20;99.90;;;;;;5065331;28;20497;-78
2022/05/20 05:15:42;;;;;;;1999.90;999.90;;;11.30;99.90;;;;;;5031953;28;20067;-77
2022/05/20 05:18:14;;;;;;;1999.90;999.90;;;11.50;99.90;;;;;;5049940;28;20032;-77
2022/05/20 05:20:51;;;;;;;1999.90;999.90;;;11.60;99.90;;;;;;5055957;28;20040;-77
2022/05/20 05:23:18;;;;;;;1999.90;999.90;;;11.70;99.90;;;;;;5066624;28;20508;-77
2022/05/20 05:25:45;;;;;;;1999.90;999.90;;;11.80;99.90;;;;;;5050352;28;20054;-77
2022/05/20 05:28:11;;;;;;;1999.90;999.90;;;12.00;99.90;;;;;;5043010;28;20033;-78
2022/05/20 05:30:37;;;;;;;1999.90;999.90;;;12.10;99.90;;;;;;5048154;28;20124;-78
2022/05/20 05:33:03;;;;;;;1999.90;999.90;;;12.30;99.90;;;;;;5070878;28;20159;-77
2022/05/20 05:35:31;;;;;;;1999.90;999.90;;;12.80;99.90;;;;;;5061643;28;20051;-78
2022/05/20 05:37:57;;;;;;;1999.90;999.90;;;14.00;99.90;;;;;;5063487;28;20135;-78
2022/05/20 05:40:31;;;;;;;1999.90;999.90;;;15.10;99.90;;;;;;5071656;28;20051;-78
2022/05/20 05:42:59;;;;;;;1999.90;999.90;;;16.20;99.90;;;;;;5069168;28;20044;-78
2022/05/20 05:45:25;;;;;;;1999.90;999.90;;;17.10;99.90;;;;;;5070521;28;20390;-78
2022/05/20 05:47:59;;;;;;;1999.90;999.90;;;17.90;99.90;;;;;;5071300;28;20401;-78
2022/05/20 05:50:26;;;;;;;1999.90;999.90;;;18.80;99.90;;;;;;5069852;28;20055;-78
2022/05/20 05:53:02;;;;;;;1999.90;999.90;;;19.30;99.90;;;;;;5039532;28;20472;-78
2022/05/20 05:55:28;;;;;;;1999.90;999.90;;;19.60;99.90;;;;;;5093929;27;20048;-79
2022/05/20 05:57:54;;;;;;;1999.90;999.90;;;19.20;99.90;;;;;;5085907;28;20044;-78
2022/05/20 06:00:20;;;;;;;1999.90;999.90;;;19.00;99.90;;;;;;5057647;28;20052;-79
2022/05/20 06:02:46;;;;;;;1999.90;999.90;;;19.30;99.90;;;;;;5054329;28;20135;-78
2022/05/20 06:05:11;;;;;;;1999.90;999.90;;;19.80;99.90;;;;;;5040938;28;20127;-79
2022/05/20 06:07:37;;;;;;;1999.90;999.90;;;20.30;99.90;;;;;;5054303;28;20032;-79
2022/05/20 06:10:03;;;;;;;1999.90;999.90;;;20.60;99.90;;;;;;5070957;28;20063;-79
2022/05/20 06:12:31;;;;;;;1999.90;999.90;;;20.90;99.90;;;;;;5052962;28;20493;-79
2022/05/20 06:14:57;;;;;;;1999.90;999.90;;;21.10;99.90;;;;;;5054278;28;20139;-79
2022/05/20 06:17:23;;;;;;;1999.90;999.90;;;20.50;99.90;;;;;;5071286;28;20044;-79
2022/05/20 06:19:49;;;;;;;1999.90;999.90;;;20.10;99.90;;;;;;5069135;28;20051;-78
2022/05/20 06:22:14;;;;;;;1999.90;999.90;;;20.70;99.90;;;;;;5050296;28;20040;-78
2022/05/20 06:24:40;;;;;;;1999.90;999.90;;;21.10;99.90;;;;;;5050610;28;20061;-80
2022/05/20 06:27:06;;;;;;;1999.90;999.90;;;20.50;99.90;;;;;;5051512;28;20089;-78
2022/05/20 06:29:31;;;;;;;1999.90;999.90;;;19.60;99.90;;;;;;5052400;28;20153;-78
2022/05/20 06:31:57;;;;;;;1999.90;999.90;;;19.20;99.90;;;;;;5048022;28;20498;-77
2022/05/20 06:34:23;;;;;;;1999.90;999.90;;;19.30;99.90;;;;;;5049151;28;20600;-78
2022/05/20 06:39:51;;;;;;;1999.90;999.90;;;18.50;99.90;;;;;;5060806;28;20049;-78
2022/05/20 06:42:19;;;;;;;1999.90;999.90;;;18.10;99.90;;;;;;5067118;28;20584;-78
2022/05/20 06:44:45;;;;;;;1999.90;999.90;;;18.00;99.90;;;;;;5064464;28;20044;-77
2022/05/20 06:47:11;;;;;;;1999.90;999.90;;;18.10;99.90;;;;;;5042745;28;20037;-76
2022/05/20 06:49:36;;;;;;;1999.90;999.90;;;18.00;99.90;;;;;;5032194;28;20086;-77
2022/05/20 06:52:02;;;;;;;1999.90;999.90;;;17.90;99.90;;;;;;5048453;28;20398;-77
2022/05/20 06:54:28;;;;;;;1999.90;999.90;;;17.90;99.90;;;;;;5049542;28;20474;-77
2022/05/20 06:56:53;;;;;;;1999.90;999.90;;;17.90;99.90;;;;;;5065551;28;20124;-77
2022/05/20 06:59:20;;;;;;;1999.90;999.90;;;17.90;99.90;;;;;;5067175;28;20040;-78
2022/05/20 07:01:46;;;;;;;1999.90;999.90;;;18.10;99.90;;;;;;5066726;28;20513;-77
2022/05/20 07:04:12;;;;;;;1999.90;999.90;;;17.90;99.90;;;;;;5064156;28;20072;-77
2022/05/20 07:06:38;;;;;;;1999.90;999.90;;;18.20;99.90;;;;;;5055667;28;20041;-77
2022/05/20 07:09:06;;;;;;;1999.90;999.90;;;18.90;99.90;;;;;;5049871;28;20471;-77
2022/05/20 07:11:31;;;;;;;1999.90;999.90;;;19.40;99.90;;;;;;5060355;28;20051;-77
2022/05/20 07:13:58;;;;;;;1999.90;999.90;;;19.60;99.90;;;;;;5050112;28;20478;-77
2022/05/20 07:16:29;;;;;;;1999.90;999.90;;;20.20;99.90;;;;;;5054783;28;20051;-77
2022/05/20 07:18:55;;;;;;;1999.90;999.90;;;20.80;99.90;;;;;;5062694;28;20037;-77
2022/05/20 07:21:21;;;;;;;1999.90;999.90;;;21.30;99.90;;;;;;5058674;28;20528;-77
2022/05/20 07:23:47;;;;;;;1999.90;999.90;;;21.30;99.90;;;;;;5046222;28;20548;-78
2022/05/20 07:26:16;;;;;;;1999.90;999.90;;;21.10;99.90;;;;;;5063490;28;20083;-78
2022/05/20 07:28:42;;;;;;;1999.90;999.90;;;21.30;99.90;;;;;;5061621;28;20465;-77
2022/05/20 07:31:08;;;;;;;1999.90;999.90;;;21.60;99.90;;;;;;5063258;28;20036;-77
2022/05/20 07:33:34;;;;;;;1999.90;999.90;;;21.60;99.90;;;;;;5053881;28;20047;-78
2022/05/20 07:36:00;;;;;;;1999.90;999.90;;;21.50;99.90;;;;;;5065165;28;20050;-78
2022/05/20 07:38:26;;;;;;;1999.90;999.90;;;20.70;99.90;;;;;;5036117;28;20040;-77
2022/05/20 07:40:55;;;;;;;1999.90;999.90;;;19.80;99.90;;;;;;5065917;28;20044;-77
2022/05/20 07:43:22;;;;;;;1999.90;999.90;;;19.40;99.90;;;;;;5065304;28;20048;-77
2022/05/20 07:45:48;;;;;;;1999.90;999.90;;;18.70;99.90;;;;;;5046719;28;20528;-77
2022/05/20 07:48:14;;;;;;;1999.90;999.90;;;18.10;99.90;;;;;;5049451;28;20090;-77
2022/05/20 07:50:45;;;;;;;1999.90;999.90;;;17.80;99.90;;;;;;5066572;28;20044;-77
2022/05/20 07:53:33;;;;;;;1999.90;999.90;;;17.70;99.90;;;;;;5049141;28;20049;-77
2022/05/20 07:56:22;;;;;;;1999.90;999.90;;;17.70;99.90;;;;;;5058998;28;20044;-77
2022/05/20 07:58:57;;;;;;;1999.90;999.90;;;17.60;99.90;;;;;;5072693;28;20044;-77
2022/05/20 08:01:29;;;;;;;1999.90;999.90;;;17.70;99.90;;;;;;5053247;28;20041;-77
2022/05/20 08:06:49;;;;;;;1999.90;999.90;;;18.00;99.90;;;;;;5060245;28;20041;-78
2022/05/20 08:09:15;;;;;;;1999.90;999.90;;;18.30;99.90;;;;;;5041022;28;20051;-77
2022/05/20 08:11:41;;;;;;;1999.90;999.90;;;18.40;99.90;;;;;;5058980;28;20055;-78
2022/05/20 08:14:06;;;;;;;1999.90;999.90;;;18.50;99.90;;;;;;5045064;28;20111;-77
2022/05/20 08:16:32;;;;;;;1999.90;999.90;;;18.60;99.90;;;;;;5063956;28;20049;-75
2022/05/20 08:18:58;;;;;;;1999.90;999.90;;;18.80;99.90;;;;;;5038402;28;20124;-77
2022/05/20 08:21:24;;;;;;;1999.90;999.90;;;18.90;99.90;;;;;;5058599;28;20055;-77
2022/05/20 08:23:49;;;;;;;1999.90;999.90;;;18.90;99.90;;;;;;5049132;28;20063;-77
2022/05/20 08:26:17;;;;;;;1999.90;999.90;;;19.20;99.90;;;;;;5067907;28;20049;-77
2022/05/20 08:28:44;;;;;;;1999.90;999.90;;;19.70;99.90;;;;;;5045957;28;20382;-77
2022/05/20 08:31:09;;;;;;;1999.90;999.90;;;20.00;99.90;;;;;;5048440;28;20045;-77
2022/05/20 08:33:35;;;;;;;1999.90;999.90;;;19.70;99.90;;;;;;5049391;28;20041;-78
2022/05/20 08:36:03;;;;;;;1999.90;999.90;;;19.40;99.90;;;;;;5049152;28;20505;-77
2022/05/20 08:38:29;;;;;;;1999.90;999.90;;;19.20;99.90;;;;;;5049835;28;20445;-77
2022/05/20 08:40:57;;;;;;;1999.90;999.90;;;19.20;99.90;;;;;;5061779;28;20048;-77
2022/05/20 08:43:28;;;;;;;1999.90;999.90;;;19.50;99.90;;;;;;5073078;28;20043;-77
2022/05/20 08:45:54;;;;;;;1999.90;999.90;;;20.10;99.90;;;;;;5055632;28;20055;-77
2022/05/20 08:48:20;;;;;;;1999.90;999.90;;;20.70;99.90;;;;;;5063017;28;21178;-77
2022/05/20 08:50:48;;;;;;;1999.90;999.90;;;21.00;99.90;;;;;;5044675;28;20048;-76
2022/05/20 08:53:27;;;;;;;1999.90;999.90;;;21.30;99.90;;;;;;5050018;28;20072;-77
2022/05/20 08:55:53;;;;;;;1999.90;999.90;;;21.30;99.90;;;;;;5047793;28;20057;-78
2022/05/20 08:58:23;;;;;;;1999.90;999.90;;;21.00;99.90;;;;;;5067134;28;20045;-77
2022/05/20 09:00:49;;;;;;;1999.90;999.90;;;20.80;99.90;;;;;;5068613;28;20044;-77
2022/05/20 09:03:16;;;;;;;1999.90;999.90;;;20.80;99.90;;;;;;5067649;28;20044;-77
2022/05/20 09:05:43;;;;;;;1999.90;999.90;;;20.90;99.90;;;;;;5048850;28;20056;-77
2022/05/20 09:08:24;;;;;;;1999.90;999.90;;;21.00;99.90;;;;;;5049217;28;20052;-77
2022/05/20 09:10:58;;;;;;;1999.90;999.90;;;21.00;99.90;;;;;;5050690;28;20382;-77
2022/05/20 09:16:18;;;;;;;1999.90;999.90;;;21.00;99.90;;;;;;5064703;28;20510;-77
2022/05/20 09:18:45;;;;;;;;;;;20.90;99.90;;;;;;5056549;28;20044;-78
2022/05/20 09:21:33;;;;;;;1999.90;999.90;;;20.80;99.90;;;;;;5048066;28;20300;-77
2022/05/20 09:24:03;;;;;;;1999.90;999.90;;;20.80;99.90;;;;;;5053547;28;20060;-77
2022/05/20 09:27:06;;;;;;;1999.90;999.90;;;20.80;99.90;;;;;;5058442;28;20051;-77
2022/05/20 09:29:34;;;;;;;;;;;20.80;99.90;;;;;;5062299;28;20494;-77
2022/05/20 09:32:03;;;;;;;1999.90;999.90;;;20.90;99.90;;;;;;5060114;28;20503;-77
2022/05/20 09:34:36;;;;;;;1999.90;999.90;;;21.10;99.90;;;;;;5068044;28;20040;-77
2022/05/20 09:37:11;;;;;;;1999.90;999.90;;;21.20;99.90;;;;;;5042066;28;20266;-77
2022/05/20 09:39:41;;;;;;;1999.90;999.90;;;21.10;99.90;;;;;;5068741;28;20501;-77
2022/05/20 09:42:18;;;;;;;1999.90;999.90;;;20.90;99.90;;;;;;5070974;28;20058;-77
2022/05/20 09:44:46;;;;;;;1999.90;999.90;;;20.60;99.90;;;;;;5052221;28;20117;-77
2022/05/20 09:47:20;;;;;;;1999.90;999.90;;;20.50;99.90;;;;;;5070300;28;20056;-77
2022/05/20 09:50:07;;;;;;;1999.90;999.90;;;20.40;99.90;;;;;;5063022;28;20047;-77
2022/05/20 09:52:33;;;;;;;1999.90;999.90;;;20.20;99.90;;;;;;5027971;28;20051;-77
2022/05/20 09:55:06;;;;;;;1999.90;999.90;;;20.10;99.90;;;;;;5062172;28;20032;-76
2022/05/20 09:57:39;;;;;;;1999.90;999.90;;;20.10;99.90;;;;;;5067465;28;20247;-77
2022/05/20 10:00:11;;;;;;;;;;;20.10;99.90;;;;;;5063396;28;20111;-77
2022/05/20 10:03:11;;;;;;;1999.90;999.90;;;20.00;99.90;;;;;;5062220;28;19982;-78
2022/05/20 10:05:48;;;;;;;1999.90;999.90;;;20.00;99.90;;;;;;5044780;28;20055;-77
2022/05/20 10:08:29;;;;;;;1999.90;999.90;;;20.00;99.90;;;;;;5060294;28;20517;-77
2022/05/20 10:11:13;;;;;;;1999.90;999.90;;;19.90;99.90;;;;;;5062925;28;20067;-77
2022/05/20 10:13:46;;;;;;;1999.90;999.90;;;19.90;99.90;;;;;;5060619;28;20036;-77
2022/05/20 10:16:23;;;;;;;1999.90;999.90;;;19.90;99.90;;;;;;5057156;28;20146;-77
2022/05/20 10:18:59;;;;;;;1999.90;999.90;;;19.90;99.90;;;;;;5062367;28;20079;-76
2022/05/20 10:21:40;;;;;;;1999.90;999.90;;;19.90;99.90;;;;;;5056876;28;20044;-77
2022/05/20 10:24:38;;;;;;;1999.90;999.90;;;20.00;99.90;;;;;;5038904;28;20071;-77
2022/05/20 10:27:36;;;;;;;1999.90;999.90;;;20.10;99.90;;;;;;5057960;28;20048;-76
2022/05/20 10:33:14;;;;;;;1999.90;999.90;;;20.00;99.90;;;;;;5055459;28;20040;-77
2022/05/20 10:36:14;;;;;;;1999.90;999.90;;;20.10;99.90;;;;;;5042274;28;20416;-78
2022/05/20 10:38:54;;;;;;;1999.90;999.90;;;20.10;99.90;;;;;;5053503;28;20117;-77
2022/05/20 10:41:55;;;;;;;1999.90;999.90;;;20.20;99.90;;;;;;5055782;28;20048;-77
2022/05/20 10:50:59;;;;;;;1999.90;999.90;;;20.40;99.90;;;;;;5047177;28;20473;-78
2022/05/20 10:53:28;;;;;;;1999.90;999.90;;;20.40;99.90;;;;;;5063387;28;20096;-78
2022/05/20 10:56:44;;;;;;;1999.90;999.90;;;20.40;99.90;;;;;;5063579;28;20477;-77
2022/05/20 10:59:42;;;;;;;1999.90;999.90;;;20.40;99.90;;;;;;4998739;28;20120;-76
2022/05/20 11:02:13;;;;;;;1999.90;999.90;;;20.60;99.90;;;;;;4996261;28;20042;-77
2022/05/20 11:04:51;;;;;;;1999.90;999.90;;;20.60;99.90;;;;;;4983401;28;20137;-77
2022/05/20 11:07:42;;;;;;;1999.90;999.90;;;20.70;99.90;;;;;;5004184;28;20041;-77
2022/05/20 11:10:26;;;;;;;1999.90;999.90;;;20.60;98.10;;;;;;4986256;28;20455;-77
2022/05/20 11:13:16;;;;;;;1999.90;999.90;;;20.60;99.90;;;;;;4973204;28;20072;-77
2022/05/20 11:15:59;;;;;;;1999.90;999.90;;;20.60;99.90;;;;;;4997741;28;20041;-77
2022/05/20 11:18:37;;;;;;;1999.90;999.90;;;20.70;99.90;;;;;;4989834;28;20427;-77
2022/05/20 11:21:11;;;;;;;1999.90;999.90;;;20.90;99.90;;;;;;4996687;28;20471;-79
2022/05/20 11:24:15;;;;;;;1999.90;999.90;;;21.10;99.90;;;;;;4994003;28;20062;-77
2022/05/20 11:27:15;;;;;;;1999.90;999.90;;;21.20;99.90;;;;;;4954059;28;20547;-77
2022/05/20 11:30:02;;;;;;;1999.90;999.90;;;21.30;99.90;;;;;;4963652;28;20057;-78
2022/05/20 11:32:37;;;;;;;1999.90;999.90;;;21.30;99.90;;;;;;4972739;28;20047;-77
2022/05/20 11:35:12;;;;;;;1999.90;999.90;;;21.40;99.90;;;;;;4953290;28;20145;-77
2022/05/20 11:37:59;;;;;;;1999.90;999.90;;;21.50;99.90;;;;;;4972332;28;20109;-77
2022/05/20 11:40:35;;;;;;;1999.90;999.90;;;21.60;97.50;;;;;;4959395;28;20046;-79
2022/05/20 11:43:45;;;;;;;1999.90;999.90;;;21.70;99.90;;;;;;4970739;28;20042;-78
2022/05/20 11:46:48;;;;;;;1999.90;999.90;;;21.80;99.90;;;;;;4940403;28;20153;-78
2022/05/20 11:49:41;;;;;;;1999.90;999.90;;;21.70;98.10;;;;;;4957132;28;20659;-78
2022/05/20 11:52:14;;;;;;;;;;;21.80;99.90;;;;;;4957457;28;20324;-78
2022/05/20 11:54:46;;;;;;;1999.90;999.90;;;21.90;99.90;;;;;;4970271;28;20384;-78
2022/05/20 11:57:17;;;;;;;1999.90;999.90;;;21.80;99.90;;;;;;4956418;28;20046;-76
2022/05/20 12:00:09;;;;;;;1999.90;999.90;;;21.80;99.90;;;;;;4973636;28;20519;-77
2022/05/20 12:03:00;;;;;;;1999.90;999.90;;;21.80;99.90;;;;;;5015961;28;20052;-77
2022/05/20 12:05:32;;;;;;;1999.90;999.90;;;21.60;99.00;;;;;;5047792;28;20127;-78
2022/05/20 12:07:58;;;;;;;1999.90;999.90;;;21.50;97.60;;;;;;5044170;28;20481;-78
2022/05/20 12:10:30;;;;;;;1999.90;999.90;;;21.40;99.30;;;;;;5058088;28;20116;-78
2022/05/20 12:13:25;;;;;;;1999.90;999.90;;;21.40;95.00;;;;;;5043403;28;20344;-79
2022/05/20 12:16:14;;;;;;;1999.90;999.90;;;21.50;99.30;;;;;;5070453;28;20282;-77
2022/05/20 12:24:44;;;;;;;1999.90;999.90;;;21.40;96.70;;;;;;5053090;28;20052;-77
2022/05/20 12:27:32;;;;;;;1999.90;999.90;;;21.60;99.00;;;;;;5064269;28;20047;-77
2022/05/20 12:30:03;;;;;;;1999.90;999.90;;;21.60;97.70;;;;;;5092753;28;20044;-78
2022/05/20 12:32:49;;;;;;;1999.90;999.90;;;21.60;97.80;;;;;;5078572;28;20127;-77
2022/05/20 12:35:22;;;;;;;1999.90;999.90;;;21.80;97.80;;;;;;5069475;28;20052;-77
2022/05/20 12:37:48;;;;;;;1999.90;999.90;;;22.10;98.00;;;;;;5052652;28;20143;-78
2022/05/20 12:40:39;;;;;;;1999.90;999.90;;;22.40;99.90;;;;;;5057827;28;20131;-77
2022/05/20 12:43:06;;;;;;;1999.90;999.90;;;22.50;97.80;;;;;;5075433;28;20516;-77
2022/05/20 12:45:54;;;;;;;1999.90;999.90;;;22.40;97.30;;;;;;5052976;28;20850;-77
2022/05/20 12:48:29;;;;;;;1999.90;999.90;;;22.20;99.90;;;;;;5036473;28;20045;-77
2022/05/20 12:51:21;;;;;;;1999.90;999.90;;;21.90;99.10;;;;;;5053158;28;20080;-77
2022/05/20 12:53:47;;;;;;;1999.90;999.90;;;21.60;96.60;;;;;;5032926;28;20090;-78
2022/05/20 12:56:30;;;;;;;1999.90;999.90;;;21.60;97.10;;;;;;5038056;28;20510;-77
2022/05/20 12:59:16;;;;;;;1999.90;999.90;;;21.70;99.90;;;;;;5064575;28;20505;-77
2022/05/20 13:01:43;;;;;;;1999.90;999.90;;;21.90;96.80;;;;;;5035931;28;20036;-78
2022/05/20 13:04:14;;;;;;;1999.90;999.90;;;22.00;98.00;;;;;;5036186;28;20044;-77